Time;durP1;ratioP1;P1;durP2;ratioP2;P2;SDS_P1;SDS_P2;PMS_P1;PMS_P2;Temp;Humidity;BMP_temperature;BMP_pressure;BME280_temperature;BME280_humidity;BME280_pressure;Samples;Min_cycle;Max_cycle;Signal;HPM_P1;HPM_P2
2023/06/11 00:00:22;;;;;;;7.00;6.13;;;;;;;21.08;100.00;100692.31;679757;29;1319;-76
2023/06/11 00:01:04;;;;;;;7.00;6.30;;;;;;;21.22;100.00;100674.84;676577;29;1408;-75
2023/06/11 00:01:35;;;;;;;7.00;6.30;;;;;;;21.20;100.00;100677.59;676467;29;1171;-76
2023/06/11 00:01:59;;;;;;;7.63;6.40;;;;;;;21.17;100.00;100682.19;677164;29;1233;-76
2023/06/11 00:02:41;;;;;;;7.45;6.22;;;;;;;21.19;100.00;100681.19;674514;29;1669;-75
2023/06/11 00:03:06;;;;;;;7.70;6.47;;;;;;;21.19;100.00;100675.00;676787;29;1258;-75
2023/06/11 00:03:27;;;;;;;7.40;6.53;;;;;;;21.25;100.00;100680.00;671974;29;1161;-75
2023/06/11 00:03:54;;;;;;;7.13;6.43;;;;;;;21.19;100.00;100698.94;670551;29;1089;-75
2023/06/11 00:04:19;;;;;;;7.05;6.35;;;;;;;21.18;100.00;100679.44;674301;29;859;-75
2023/06/11 00:04:45;;;;;;;8.38;6.05;;;;;;;21.20;100.00;100682.91;673914;29;988;-75
2023/06/11 00:05:09;;;;;;;8.10;6.30;;;;;;;21.20;100.00;100695.34;677529;29;918;-75
2023/06/11 00:05:30;;;;;;;8.07;6.35;;;;;;;21.22;100.00;100680.16;680212;29;920;-75
2023/06/11 00:05:56;;;;;;;8.23;6.38;;;;;;;21.23;100.00;100689.88;677805;29;1294;-75
2023/06/11 00:06:22;;;;;;;7.28;6.40;;;;;;;21.24;100.00;100679.16;674432;29;1510;-75
2023/06/11 00:06:45;;;;;;;7.60;6.45;;;;;;;21.15;100.00;100686.72;673329;29;1242;-75
2023/06/11 00:07:06;;;;;;;8.00;7.00;;;;;;;21.14;100.00;100685.00;669070;29;1247;-75
2023/06/11 00:07:39;;;;;;;8.13;6.63;;;;;;;21.13;100.00;100678.84;668465;29;1330;-74
2023/06/11 00:08:06;;;;;;;7.28;6.47;;;;;;;21.20;100.00;100690.03;672972;29;1272;-74
2023/06/11 00:08:33;;;;;;;7.85;6.70;;;;;;;21.06;100.00;100696.88;674944;29;1211;-76
2023/06/11 00:08:55;;;;;;;7.93;6.50;;;;;;;21.02;100.00;100694.44;676952;29;1397;-74
2023/06/11 00:09:20;;;;;;;8.10;6.30;;;;;;;21.04;100.00;100698.72;674955;29;1241;-73
2023/06/11 00:09:41;;;;;;;7.13;6.40;;;;;;;20.99;100.00;100682.16;674178;29;1092;-76
2023/06/11 00:10:05;;;;;;;7.50;6.70;;;;;;;20.96;100.00;100698.22;672061;29;1055;-75
2023/06/11 00:10:30;;;;;;;7.65;6.78;;;;;;;21.02;100.00;100689.97;673078;29;1413;-75
2023/06/11 00:10:51;;;;;;;7.15;6.45;;;;;;;21.06;100.00;100691.56;671379;29;1280;-76
2023/06/11 00:11:12;;;;;;;7.13;6.43;;;;;;;21.00;100.00;100686.53;675960;29;1206;-75
2023/06/11 00:11:34;;;;;;;7.07;6.38;;;;;;;20.95;100.00;100709.81;672682;29;1435;-75
2023/06/11 00:11:55;;;;;;;7.47;6.60;;;;;;;20.97;100.00;100681.34;674104;29;1442;-76
2023/06/11 00:12:19;;;;;;;7.13;6.43;;;;;;;20.88;100.00;100671.19;676727;29;1226;-75
2023/06/11 00:12:43;;;;;;;7.35;6.65;;;;;;;20.84;100.00;100677.59;673104;29;1456;-75
2023/06/11 00:13:05;;;;;;;8.13;6.57;;;;;;;20.87;100.00;100678.28;675100;29;1309;-77
2023/06/11 00:13:27;;;;;;;7.80;6.38;;;;;;;20.99;100.00;100694.56;669042;29;1473;-75
2023/06/11 00:13:49;;;;;;;7.38;6.60;;;;;;;20.99;100.00;100675.97;671242;29;1024;-75
2023/06/11 00:14:11;;;;;;;7.03;6.32;;;;;;;21.02;100.00;100674.03;674694;29;1294;-75
2023/06/11 00:14:41;;;;;;;6.88;6.18;;;;;;;20.98;100.00;100693.72;677420;29;1282;-75
2023/06/11 00:15:08;;;;;;;11.23;7.00;;;;;;;20.92;100.00;100688.69;679509;29;1350;-76
2023/06/11 00:15:30;;;;;;;7.75;6.50;;;;;;;20.95;100.00;100683.25;670269;29;1450;-75
2023/06/11 00:15:56;;;;;;;6.78;6.07;;;;;;;20.88;100.00;100693.31;671945;29;1164;-74
2023/06/11 00:16:19;;;;;;;7.35;5.90;;;;;;;20.88;100.00;100687.97;673561;29;3641;-75
2023/06/11 00:16:43;;;;;;;7.10;6.28;;;;;;;21.00;100.00;100681.22;672285;29;1045;-75
2023/06/11 00:17:07;;;;;;;7.45;6.57;;;;;;;20.99;100.00;100691.91;678049;29;1443;-74
2023/06/11 00:17:32;;;;;;;7.32;6.53;;;;;;;20.98;100.00;100676.94;671732;29;1583;-75
2023/06/11 00:18:16;;;;;;;8.88;6.40;;;;;;;21.05;100.00;100678.34;674367;29;1010;-75
2023/06/11 00:18:40;;;;;;;6.88;6.18;;;;;;;21.02;100.00;100678.50;673079;29;1007;-75
2023/06/11 00:19:07;;;;;;;7.45;6.55;;;;;;;20.98;100.00;100699.03;674294;29;1413;-74
2023/06/11 00:19:32;;;;;;;7.43;5.97;;;;;;;20.95;100.00;100683.25;676981;29;1448;-75
2023/06/11 00:19:53;;;;;;;7.13;6.30;;;;;;;20.99;100.00;100695.44;677015;29;1314;-75
2023/06/11 00:20:20;;;;;;;8.10;6.65;;;;;;;20.96;100.00;100695.56;680094;29;1424;-76
2023/06/11 00:20:44;;;;;;;7.53;6.32;;;;;;;21.01;100.00;100700.69;679268;29;1244;-75
2023/06/11 00:21:12;;;;;;;8.40;6.63;;;;;;;21.02;100.00;100681.16;673290;29;1560;-77
2023/06/11 00:21:46;;;;;;;7.85;6.50;;;;;;;20.90;100.00;100679.94;673666;29;1412;-76
2023/06/11 00:22:10;;;;;;;7.43;6.38;;;;;;;20.89;100.00;100678.22;672880;29;957;-75
2023/06/11 00:22:34;;;;;;;7.35;6.32;;;;;;;20.84;100.00;100672.28;672980;29;1282;-76
2023/06/11 00:23:09;;;;;;;7.03;6.32;;;;;;;20.75;100.00;100679.75;674128;29;1331;-76
2023/06/11 00:23:37;;;;;;;7.82;6.25;;;;;;;20.85;100.00;100679.28;672442;29;1501;-75
2023/06/11 00:23:58;;;;;;;7.22;6.40;;;;;;;20.87;100.00;100694.22;671681;29;1261;-75
2023/06/11 00:24:19;;;;;;;7.03;6.22;;;;;;;20.85;100.00;100687.25;671590;29;1531;-75
2023/06/11 00:24:53;;;;;;;;;;;;;;;;;;;;;
2023/06/11 00:25:14;;;;;;;8.20;6.70;;;;;;;20.84;100.00;100689.06;675027;29;929;-75
2023/06/11 00:25:37;;;;;;;7.20;6.50;;;;;;;20.81;100.00;100691.88;671419;29;1417;-75
2023/06/11 00:26:09;;;;;;;7.32;6.63;;;;;;;20.88;100.00;100679.16;676894;29;1143;-75
2023/06/11 00:26:30;;;;;;;8.38;6.82;;;;;;;20.84;100.00;100686.41;674163;29;1363;-75
2023/06/11 00:26:51;;;;;;;8.32;6.70;;;;;;;20.89;100.00;100678.22;676524;29;1306;-75
2023/06/11 00:27:25;;;;;;;8.77;6.50;;;;;;;20.91;100.00;100673.69;675525;29;1344;-76
2023/06/11 00:27:49;;;;;;;7.05;6.25;;;;;;;20.82;100.00;100700.69;675725;29;2550;-75
2023/06/11 00:28:12;;;;;;;7.55;6.75;;;;;;;20.90;100.00;100675.47;679324;29;869;-75
2023/06/11 00:28:42;;;;;;;7.38;6.47;;;;;;;20.98;100.00;100690.22;678833;29;1061;-75
2023/06/11 00:29:04;;;;;;;7.55;6.68;;;;;;;20.91;100.00;100671.03;680097;29;1442;-75
2023/06/11 00:29:25;;;;;;;7.38;6.20;;;;;;;20.85;100.00;100681.94;677342;29;1328;-75
2023/06/11 00:29:45;;;;;;;7.93;6.60;;;;;;;20.83;100.00;100679.38;676398;29;1301;-75
2023/06/11 00:30:06;;;;;;;7.88;6.55;;;;;;;20.77;100.00;100678.78;677534;29;1266;-75
2023/06/11 00:30:27;;;;;;;8.13;6.70;;;;;;;20.74;100.00;100664.72;677174;29;1419;-75
2023/06/11 00:30:57;;;;;;;8.70;6.60;;;;;;;20.72;100.00;100682.53;673681;29;1909;-74
2023/06/11 00:31:22;;;;;;;7.10;6.10;;;;;;;20.71;100.00;100670.19;675036;29;1165;-75
2023/06/11 00:31:43;;;;;;;7.80;6.50;;;;;;;20.75;100.00;100669.13;675748;29;961;-75
2023/06/11 00:32:04;;;;;;;7.55;6.20;;;;;;;20.85;100.00;100673.97;677663;29;803;-75
2023/06/11 00:32:24;;;;;;;7.75;6.32;;;;;;;20.82;100.00;100667.00;673286;29;1671;-75
2023/06/11 00:32:48;;;;;;;7.07;6.20;;;;;;;20.80;100.00;100676.00;676182;29;1188;-75
2023/06/11 00:33:09;;;;;;;7.20;6.35;;;;;;;20.79;100.00;100680.44;677919;29;1343;-75
2023/06/11 00:33:35;;;;;;;9.40;7.00;;;;;;;20.88;100.00;100692.44;677370;29;1313;-77
2023/06/11 00:33:56;;;;;;;9.00;7.00;;;;;;;20.83;100.00;100668.72;672354;29;1376;-76
2023/06/11 00:34:17;;;;;;;8.55;6.40;;;;;;;20.86;100.00;100684.53;675205;29;1330;-77
2023/06/11 00:34:39;;;;;;;7.63;6.40;;;;;;;20.84;100.00;100672.28;673529;29;1009;-76
2023/06/11 00:35:01;;;;;;;7.28;6.53;;;;;;;20.82;100.00;100669.66;671782;29;1316;-76
2023/06/11 00:35:23;;;;;;;8.05;6.57;;;;;;;20.87;100.00;100677.44;670855;29;1177;-75
2023/06/11 00:35:44;;;;;;;8.02;6.53;;;;;;;20.81;100.00;100675.06;674058;29;1285;-76
2023/06/11 00:36:05;;;;;;;7.60;6.40;;;;;;;20.84;100.00;100670.47;674701;29;1220;-76
2023/06/11 00:36:29;;;;;;;7.72;6.70;;;;;;;20.87;100.00;100667.66;674880;29;1053;-76
2023/06/11 00:36:50;;;;;;;7.68;6.70;;;;;;;20.79;100.00;100677.78;675931;29;1064;-76
2023/06/11 00:37:11;;;;;;;7.30;6.60;;;;;;;20.77;100.00;100679.66;677018;29;1209;-76
2023/06/11 00:37:43;;;;;;;7.20;6.43;;;;;;;20.74;100.00;100685.97;673416;29;1112;-76
2023/06/11 00:38:05;;;;;;;8.15;6.88;;;;;;;20.79;100.00;100684.91;676402;29;1383;-76
2023/06/11 00:38:26;;;;;;;8.40;7.10;;;;;;;20.82;100.00;100695.38;677033;29;1313;-76
2023/06/11 00:38:54;;;;;;;9.83;7.27;;;;;;;20.81;100.00;100669.75;672143;29;5065;-76
2023/06/11 00:39:15;;;;;;;7.30;6.43;;;;;;;20.81;100.00;100669.75;676584;29;1404;-76
2023/06/11 00:39:39;;;;;;;7.47;6.77;;;;;;;20.85;100.00;100666.00;679319;29;1337;-75
2023/06/11 00:40:01;;;;;;;7.40;6.70;;;;;;;20.80;100.00;100673.34;677122;29;1331;-76
2023/06/11 00:40:21;;;;;;;7.30;6.60;;;;;;;20.79;100.00;100687.56;676268;29;968;-76
2023/06/11 00:40:43;;;;;;;7.38;6.57;;;;;;;20.79;100.00;100687.56;675587;29;1021;-76
2023/06/11 00:41:04;;;;;;;7.22;6.53;;;;;;;20.79;100.00;100667.16;672847;29;1267;-76
2023/06/11 00:41:25;;;;;;;7.20;6.20;;;;;;;20.78;100.00;100685.81;670680;29;1408;-76
2023/06/11 00:41:48;;;;;;;7.83;6.63;;;;;;;20.69;100.00;100680.00;670633;29;1311;-76
2023/06/11 00:42:10;;;;;;;7.35;6.47;;;;;;;20.70;100.00;100664.94;672875;29;850;-76
2023/06/11 00:42:33;;;;;;;7.55;6.78;;;;;;;20.69;100.00;100664.06;678133;29;1381;-76
2023/06/11 00:42:54;;;;;;;8.02;6.60;;;;;;;20.76;100.00;100672.63;672899;29;1301;-75
2023/06/11 00:43:21;;;;;;;8.02;6.60;;;;;;;20.76;100.00;100691.22;674721;29;1097;-75
2023/06/11 00:43:44;;;;;;;7.60;6.47;;;;;;;20.78;100.00;100692.00;671941;29;961;-76
2023/06/11 00:44:06;;;;;;;7.80;6.53;;;;;;;20.72;100.00;100681.66;672577;29;989;-76
2023/06/11 00:44:29;;;;;;;7.22;6.40;;;;;;;20.71;100.00;100685.25;670945;29;1420;-75
2023/06/11 00:44:54;;;;;;;8.00;6.72;;;;;;;20.65;100.00;100681.06;670241;29;1242;-76
2023/06/11 00:45:15;;;;;;;7.22;6.43;;;;;;;20.67;100.00;100665.94;670969;29;881;-77
2023/06/11 00:45:38;;;;;;;7.43;6.60;;;;;;;20.72;100.00;100693.16;669779;29;1296;-76
2023/06/11 00:46:02;;;;;;;8.43;6.35;;;;;;;20.80;100.00;100679.50;672551;29;1396;-76
2023/06/11 00:46:23;;;;;;;7.18;6.18;;;;;;;20.80;100.00;100668.88;674084;29;1377;-76
2023/06/11 00:46:45;;;;;;;7.50;6.20;;;;;;;20.76;100.00;100667.31;676807;29;1305;-76
2023/06/11 00:47:09;;;;;;;8.10;6.38;;;;;;;20.79;100.00;100671.63;676365;29;1499;-76
2023/06/11 00:47:36;;;;;;;7.22;6.47;;;;;;;20.74;100.00;100690.41;677079;29;1499;-76
2023/06/11 00:47:57;;;;;;;7.10;6.22;;;;;;;20.80;100.00;100681.31;676360;29;941;-76
2023/06/11 00:48:19;;;;;;;7.78;6.32;;;;;;;20.80;100.00;100676.00;678844;29;1366;-76
2023/06/11 00:48:40;;;;;;;7.05;6.03;;;;;;;20.82;100.00;100693.56;673781;29;1226;-76
2023/06/11 00:49:00;;;;;;;7.05;6.35;;;;;;;20.75;100.00;100666.47;677316;29;904;-76
2023/06/11 00:49:22;;;;;;;7.30;6.50;;;;;;;20.70;100.00;100679.09;678715;29;840;-75
2023/06/11 00:49:44;;;;;;;7.10;6.40;;;;;;;20.67;100.00;100679.22;676756;29;1264;-76
2023/06/11 00:50:05;;;;;;;7.10;6.40;;;;;;;20.66;100.00;100690.75;669621;29;1291;-76
2023/06/11 00:50:28;;;;;;;7.20;6.50;;;;;;;20.62;100.00;100680.34;674807;29;1332;-75
2023/06/11 00:50:50;;;;;;;7.47;6.45;;;;;;;20.56;100.00;100662.88;676431;29;1922;-76
2023/06/11 00:51:11;;;;;;;7.22;6.32;;;;;;;20.62;100.00;100669.72;677896;29;1417;-76
2023/06/11 00:51:31;;;;;;;7.50;6.20;;;;;;;20.62;100.00;100670.59;674627;29;1390;-76
2023/06/11 00:51:53;;;;;;;6.90;6.20;;;;;;;20.66;100.00;100669.50;678594;29;1500;-77
2023/06/11 00:52:15;;;;;;;7.65;6.85;;;;;;;20.61;100.00;100663.53;678747;29;1327;-77
2023/06/11 00:52:36;;;;;;;7.40;6.32;;;;;;;20.59;100.00;100684.00;678709;29;917;-76
2023/06/11 00:52:57;;;;;;;7.28;6.47;;;;;;;20.57;100.00;100664.63;677064;29;1515;-76
2023/06/11 00:53:21;;;;;;;7.63;6.47;;;;;;;20.58;100.00;100690.25;677721;29;898;-76
2023/06/11 00:53:42;;;;;;;7.50;6.38;;;;;;;20.66;100.00;100687.25;677620;29;1235;-75
2023/06/11 00:54:03;;;;;;;7.15;6.45;;;;;;;20.63;100.00;100684.72;677614;29;819;-76
2023/06/11 00:54:25;;;;;;;7.88;6.78;;;;;;;20.56;100.00;100668.19;674823;29;1246;-76
2023/06/11 00:54:46;;;;;;;7.28;6.57;;;;;;;20.65;100.00;100672.25;671516;29;1277;-76
2023/06/11 00:55:07;;;;;;;7.15;6.35;;;;;;;20.61;100.00;100666.19;672760;29;1108;-76
2023/06/11 00:55:31;;;;;;;8.52;6.57;;;;;;;20.58;100.00;100671.66;674445;29;1325;-76
2023/06/11 00:55:53;;;;;;;8.07;6.72;;;;;;;20.67;100.00;100670.34;675000;29;1147;-77
2023/06/11 00:56:17;;;;;;;7.32;6.35;;;;;;;20.71;100.00;100691.44;674835;29;1112;-76
2023/06/11 00:56:43;;;;;;;7.50;6.70;;;;;;;20.74;100.00;100680.66;675647;29;988;-76
2023/06/11 00:57:06;;;;;;;7.53;6.72;;;;;;;20.67;100.00;100679.22;677225;29;969;-76
2023/06/11 00:57:27;;;;;;;6.80;6.10;;;;;;;20.69;100.00;100682.66;682085;29;910;-76
2023/06/11 00:57:48;;;;;;;7.10;6.30;;;;;;;20.68;100.00;100664.16;678662;29;1190;-76
2023/06/11 00:58:13;;;;;;;8.10;6.68;;;;;;;20.70;100.00;100673.78;676834;29;1423;-76
2023/06/11 00:58:35;;;;;;;7.43;6.70;;;;;;;20.70;100.00;100680.88;676036;29;1423;-76
2023/06/11 00:58:57;;;;;;;7.40;6.43;;;;;;;20.69;100.00;100680.00;677949;29;1427;-76
2023/06/11 00:59:19;;;;;;;7.45;6.28;;;;;;;20.75;100.00;100661.16;678295;29;961;-76
2023/06/11 00:59:41;;;;;;;7.65;6.43;;;;;;;20.68;100.00;100674.78;679910;28;1345;-76
2023/06/11 01:00:10;;;;;;;7.07;6.32;;;;;;;20.72;100.00;100674.56;679624;29;1409;-77
2023/06/11 01:00:43;;;;;;;7.95;6.60;;;;;;;20.62;100.00;100678.56;677676;29;1056;-76
2023/06/11 01:01:05;;;;;;;6.95;6.25;;;;;;;20.55;100.00;100666.50;679516;29;1332;-76
2023/06/11 01:01:33;;;;;;;8.70;6.55;;;;;;;20.53;100.00;100679.84;679834;29;1679;-76
2023/06/11 01:02:09;;;;;;;7.53;6.72;;;;;;;20.54;100.00;100668.28;681464;29;1173;-77
2023/06/11 01:02:44;;;;;;;7.35;6.57;;;;;;;20.58;100.00;100690.25;682554;29;1407;-78
2023/06/11 01:03:17;;;;;;;7.38;6.40;;;;;;;20.63;100.00;100701.53;674664;29;1310;-76
2023/06/11 01:03:41;;;;;;;9.15;6.10;;;;;;;20.59;100.00;100676.91;673068;29;1280;-76
2023/06/11 01:04:05;;;;;;;8.18;6.57;;;;;;;20.53;100.00;100669.22;671480;29;887;-76
2023/06/11 01:04:29;;;;;;;7.45;6.43;;;;;;;20.58;100.00;100669.00;673538;29;1534;-76
2023/06/11 01:04:57;;;;;;;7.72;6.35;;;;;;;20.60;100.00;100669.78;673497;29;1248;-76
2023/06/11 01:05:21;;;;;;;7.28;6.20;;;;;;;20.57;100.00;100689.41;675454;29;1070;-76
2023/06/11 01:05:44;;;;;;;7.55;6.20;;;;;;;20.54;100.00;100672.72;673225;29;1437;-76
2023/06/11 01:06:11;;;;;;;7.38;6.57;;;;;;;20.51;100.00;100688.81;675473;29;1397;-77
2023/06/11 01:06:36;;;;;;;6.95;6.25;;;;;;;20.52;100.00;100671.94;679517;29;1353;-76
2023/06/11 01:07:00;;;;;;;7.90;6.40;;;;;;;20.47;100.00;100669.50;675458;29;856;-77
2023/06/11 01:07:35;;;;;;;7.00;6.13;;;;;;;20.49;100.00;100701.28;675562;29;1287;-76
2023/06/11 01:08:00;;;;;;;7.95;6.57;;;;;;;20.42;100.00;100680.34;675952;29;1408;-76
2023/06/11 01:08:26;;;;;;;7.38;6.60;;;;;;;20.42;100.00;100669.72;676734;29;1003;-76
2023/06/11 01:08:57;;;;;;;7.15;6.45;;;;;;;20.53;100.00;100682.50;672603;29;1337;-75
2023/06/11 01:09:22;;;;;;;6.95;6.13;;;;;;;20.62;100.00;100673.25;675398;29;1554;-77
2023/06/11 01:09:45;;;;;;;7.05;6.00;;;;;;;20.68;100.00;100675.63;678742;29;1373;-77
2023/06/11 01:10:08;;;;;;;7.72;6.63;;;;;;;20.59;100.00;100670.72;677036;29;1452;-75
2023/06/11 01:10:30;;;;;;;7.13;6.40;;;;;;;20.63;100.00;100695.34;679041;29;1096;-76
2023/06/11 01:10:58;;;;;;;7.40;6.57;;;;;;;20.60;100.00;100677.75;676294;29;1906;-76
2023/06/11 01:11:22;;;;;;;7.35;6.22;;;;;;;20.65;100.00;100665.13;673335;29;1125;-76
2023/06/11 01:11:48;;;;;;;6.82;6.05;;;;;;;20.71;100.00;100680.81;673785;29;1273;-76
2023/06/11 01:12:17;;;;;;;7.47;6.03;;;;;;;20.69;100.00;100682.66;674550;29;1564;-76
2023/06/11 01:12:37;;;;;;;7.20;6.30;;;;;;;20.70;100.00;100672.91;670033;29;3443;-76
2023/06/11 01:12:58;;;;;;;6.90;6.20;;;;;;;20.71;100.00;100675.50;672308;29;1369;-76
2023/06/11 01:13:20;;;;;;;7.47;6.45;;;;;;;20.60;100.00;100677.75;669782;29;1202;-76
2023/06/11 01:13:40;;;;;;;7.13;6.22;;;;;;;20.68;100.00;100691.56;673319;29;1473;-76
2023/06/11 01:14:04;;;;;;;7.55;6.45;;;;;;;20.65;100.00;100675.75;674505;29;1471;-76
2023/06/11 01:14:26;;;;;;;7.70;6.38;;;;;;;20.70;100.00;100689.72;677198;29;1377;-76
2023/06/11 01:14:47;;;;;;;7.47;6.40;;;;;;;20.70;100.00;100668.47;673387;29;1265;-76
2023/06/11 01:15:14;;;;;;;7.18;6.30;;;;;;;20.68;100.00;100672.13;676280;29;1260;-76
2023/06/11 01:15:34;;;;;;;7.10;6.28;;;;;;;20.68;100.00;100686.25;671490;29;1211;-76
2023/06/11 01:16:07;;;;;;;7.10;6.20;;;;;;;20.53;100.00;100671.00;673957;29;1230;-77
2023/06/11 01:16:36;;;;;;;7.38;6.38;;;;;;;20.58;100.00;100677.81;672451;29;878;-76
2023/06/11 01:17:04;;;;;;;8.52;6.53;;;;;;;20.64;100.00;100674.00;676783;29;1382;-76
2023/06/11 01:17:35;;;;;;;7.90;6.45;;;;;;;20.63;100.00;100664.34;678532;29;1486;-76
2023/06/11 01:18:07;;;;;;;7.00;6.30;;;;;;;20.55;100.00;100666.50;678949;29;1253;-77
2023/06/11 01:18:40;;;;;;;7.28;6.45;;;;;;;20.59;100.00;100673.38;682062;29;794;-76
2023/06/11 01:19:33;;;;;;;7.30;6.45;;;;;;;20.54;100.00;100670.06;676974;29;951;-76
2023/06/11 01:20:09;;;;;;;7.28;6.57;;;;;;;20.54;100.00;100667.44;671440;29;1678;-77
2023/06/11 01:20:37;;;;;;;7.55;6.63;;;;;;;20.62;100.00;100667.94;671887;29;1387;-76
2023/06/11 01:21:13;;;;;;;7.32;6.25;;;;;;;20.57;100.00;100678.78;677489;29;1257;-76
2023/06/11 01:21:45;;;;;;;7.22;6.30;;;;;;;20.53;100.00;100665.69;681311;28;1144;-76
2023/06/11 01:22:36;;;;;;;7.55;6.57;;;;;;;20.45;100.00;100671.38;675239;29;1503;-77
2023/06/11 01:23:06;;;;;;;7.90;6.57;;;;;;;20.40;100.00;100670.72;676274;29;1420;-76
2023/06/11 01:23:41;;;;;;;7.15;6.20;;;;;;;20.45;100.00;100659.88;670331;29;1619;-76
2023/06/11 01:24:21;;;;;;;7.57;6.47;;;;;;;20.42;100.00;100675.03;678288;29;1385;-77
2023/06/11 01:25:05;;;;;;;7.40;6.40;;;;;;;20.50;100.00;100666.69;676008;29;1230;-76
2023/06/11 01:25:45;;;;;;;9.57;6.45;;;;;;;20.42;100.00;100667.06;679778;29;869;-77
2023/06/11 01:26:33;;;;;;;7.00;6.30;;;;;;;20.41;100.00;100669.78;674808;29;997;-76
2023/06/11 01:27:46;;;;;;;7.55;6.25;;;;;;;20.40;100.00;100671.56;676570;29;1526;-76
2023/06/11 01:28:16;;;;;;;7.53;6.60;;;;;;;20.38;100.00;100673.44;670764;29;1377;-76
2023/06/11 01:28:38;;;;;;;7.90;6.70;;;;;;;20.35;100.00;100673.59;668915;29;1334;-77
2023/06/11 01:29:01;;;;;;;7.93;6.63;;;;;;;20.38;100.00;100673.44;674679;29;905;-75
2023/06/11 01:29:23;;;;;;;7.15;6.10;;;;;;;20.33;100.00;100672.78;674376;29;1419;-76
2023/06/11 01:29:49;;;;;;;6.88;6.10;;;;;;;20.35;100.00;100668.28;672605;29;1447;-75
2023/06/11 01:30:17;;;;;;;7.40;6.55;;;;;;;20.40;100.00;100662.75;677662;29;1341;-77
2023/06/11 01:30:47;;;;;;;7.40;6.60;;;;;;;20.34;100.00;100668.31;672907;29;1964;-76
2023/06/11 01:31:15;;;;;;;7.30;6.40;;;;;;;20.39;100.00;100674.28;674752;29;1350;-76
2023/06/11 01:31:40;;;;;;;7.85;6.72;;;;;;;20.46;100.00;100669.56;673416;29;1364;-76
2023/06/11 01:32:04;;;;;;;8.10;6.60;;;;;;;20.40;100.00;100676.03;677279;29;1314;-76
2023/06/11 01:32:28;;;;;;;7.53;6.45;;;;;;;20.36;100.00;100663.81;673981;29;1341;-76
2023/06/11 01:32:53;;;;;;;7.35;6.05;;;;;;;20.40;100.00;100668.91;675509;29;1281;-76
2023/06/11 01:33:18;;;;;;;7.05;6.35;;;;;;;20.32;100.00;100667.53;674862;29;1325;-76
2023/06/11 01:33:43;;;;;;;7.80;6.45;;;;;;;20.41;100.00;100680.41;671161;29;1309;-75
2023/06/11 01:34:05;;;;;;;7.40;6.43;;;;;;;20.32;100.00;100679.00;670420;29;1510;-76
2023/06/11 01:34:27;;;;;;;6.93;6.22;;;;;;;20.33;100.00;100683.41;674233;29;1238;-76
2023/06/11 01:35:06;;;;;;;7.63;6.60;;;;;;;20.32;100.00;100668.41;674324;29;1524;-76
2023/06/11 01:35:40;;;;;;;7.63;6.28;;;;;;;20.32;100.00;100679.00;677474;29;1394;-76
2023/06/11 01:36:01;;;;;;;7.07;6.22;;;;;;;20.29;100.00;100684.47;674791;29;1455;-76
2023/06/11 01:36:29;;;;;;;6.90;6.10;;;;;;;20.28;100.00;100672.13;674679;29;1411;-76
2023/06/11 01:36:51;;;;;;;7.50;6.70;;;;;;;20.39;100.00;100684.91;671713;29;1313;-76
2023/06/11 01:37:14;;;;;;;7.35;6.60;;;;;;;20.34;100.00;100690.44;670084;29;1172;-76
2023/06/11 01:37:45;;;;;;;7.93;6.43;;;;;;;20.36;100.00;100672.63;672522;29;1267;-76
2023/06/11 01:38:08;;;;;;;7.28;6.53;;;;;;;20.36;100.00;100677.09;678148;29;1314;-76
2023/06/11 01:38:42;;;;;;;7.30;6.50;;;;;;;20.38;100.00;100689.38;681975;28;1383;-76
2023/06/11 01:39:13;;;;;;;7.70;6.63;;;;;;;20.35;100.00;100668.28;680743;29;898;-76
2023/06/11 01:39:45;;;;;;;8.07;6.53;;;;;;;20.32;100.00;100671.06;678890;29;1305;-76
2023/06/11 01:40:18;;;;;;;6.85;6.15;;;;;;;20.28;100.00;100674.78;675157;29;1305;-76
2023/06/11 01:40:43;;;;;;;6.82;6.13;;;;;;;20.31;100.00;100677.31;673218;29;1293;-76
2023/06/11 01:41:05;;;;;;;7.53;6.43;;;;;;;20.27;100.00;100670.41;675414;29;1199;-75
2023/06/11 01:41:27;;;;;;;8.95;6.32;;;;;;;20.27;100.00;100685.47;678174;29;1324;-76
2023/06/11 01:41:50;;;;;;;7.65;6.32;;;;;;;20.29;100.00;100665.88;676475;29;1345;-77
2023/06/11 01:42:12;;;;;;;7.03;5.93;;;;;;;20.34;100.00;100670.97;674534;29;1434;-76
2023/06/11 01:42:32;;;;;;;7.40;6.10;;;;;;;20.33;100.00;100688.72;672322;29;1305;-76
2023/06/11 01:42:54;;;;;;;6.90;6.20;;;;;;;20.43;100.00;100667.91;676485;29;1150;-77
2023/06/11 01:43:15;;;;;;;7.75;6.38;;;;;;;20.45;100.00;100667.84;680762;29;1181;-76
2023/06/11 01:43:35;;;;;;;6.93;6.20;;;;;;;20.39;100.00;100669.88;681321;28;1358;-77
2023/06/11 01:43:56;;;;;;;7.05;5.93;;;;;;;20.40;100.00;100676.03;684759;28;1384;-76
2023/06/11 01:44:20;;;;;;;7.40;6.40;;;;;;;20.43;100.00;100673.22;677944;29;1173;-75
2023/06/11 01:44:40;;;;;;;7.57;6.32;;;;;;;20.39;100.00;100661.91;678766;29;1476;-76
2023/06/11 01:45:00;;;;;;;7.33;6.37;;;;;;;20.37;100.00;100673.50;678636;29;1367;-76
2023/06/11 01:45:22;;;;;;;7.22;6.10;;;;;;;20.38;100.00;100672.56;679469;29;1170;-76
2023/06/11 01:45:43;;;;;;;7.10;6.13;;;;;;;20.34;100.00;100679.81;677222;29;1357;-76
2023/06/11 01:46:04;;;;;;;7.38;6.40;;;;;;;20.33;100.00;100664.81;675394;29;1388;-76
2023/06/11 01:46:28;;;;;;;7.57;6.47;;;;;;;20.39;100.00;100675.19;670373;29;1726;-76
2023/06/11 01:46:49;;;;;;;7.35;5.93;;;;;;;20.37;100.00;100671.72;673334;29;1545;-75
2023/06/11 01:47:10;;;;;;;7.27;6.10;;;;;;;20.31;100.00;100679.09;674625;29;1498;-76
2023/06/11 01:47:30;;;;;;;7.22;6.38;;;;;;;20.28;100.00;100689.84;674603;29;1163;-76
2023/06/11 01:47:52;;;;;;;7.70;6.30;;;;;;;20.25;100.00;100674.91;674196;29;894;-76
2023/06/11 01:48:15;;;;;;;10.88;6.75;;;;;;;20.28;100.00;100671.28;675917;29;1421;-76
2023/06/11 01:48:36;;;;;;;8.70;6.20;;;;;;;20.31;100.00;100669.34;673850;29;1258;-76
2023/06/11 01:48:57;;;;;;;7.53;6.10;;;;;;;20.35;100.00;100676.25;676867;29;1217;-75
2023/06/11 01:49:17;;;;;;;6.77;6.07;;;;;;;20.33;100.00;100679.91;679935;29;766;-76
2023/06/11 01:49:39;;;;;;;6.88;6.18;;;;;;;20.16;100.00;100677.97;679120;29;1387;-77
2023/06/11 01:50:00;;;;;;;6.88;6.18;;;;;;;20.11;100.00;100674.69;679948;29;1296;-76
2023/06/11 01:50:21;;;;;;;6.50;5.85;;;;;;;20.24;100.00;100671.41;679385;29;925;-76
2023/06/11 01:50:41;;;;;;;7.07;6.20;;;;;;;20.18;100.00;100671.69;676342;29;1939;-76
2023/06/11 01:51:01;;;;;;;7.57;6.27;;;;;;;20.17;100.00;100682.38;674723;29;1358;-76
2023/06/11 01:51:25;;;;;;;7.57;6.30;;;;;;;20.21;100.00;100679.53;669308;29;1328;-76
2023/06/11 01:51:49;;;;;;;7.20;6.22;;;;;;;20.21;100.00;100676.88;669589;29;966;-76
2023/06/11 01:52:12;;;;;;;7.70;6.30;;;;;;;20.16;100.00;100691.25;671711;29;1250;-76
2023/06/11 01:52:32;;;;;;;7.00;6.25;;;;;;;20.18;100.00;100686.75;672900;29;1278;-76
2023/06/11 01:52:53;;;;;;;7.77;6.30;;;;;;;20.14;100.00;100695.78;670462;29;1240;-77
2023/06/11 01:53:16;;;;;;;7.85;5.88;;;;;;;20.13;100.00;100688.72;671999;29;1533;-76
2023/06/11 01:53:37;;;;;;;7.63;6.00;;;;;;;20.12;100.00;100692.31;668666;29;1258;-77
2023/06/11 01:53:57;;;;;;;6.82;5.90;;;;;;;20.12;100.00;100679.03;671625;29;1464;-76
2023/06/11 01:54:18;;;;;;;6.70;6.00;;;;;;;20.11;100.00;100702.06;674613;29;1522;-76
2023/06/11 01:54:39;;;;;;;7.25;6.53;;;;;;;20.14;100.00;100669.25;676219;29;1487;-76
2023/06/11 01:55:02;;;;;;;7.28;5.95;;;;;;;20.11;100.00;100685.31;674645;29;1248;-77
2023/06/11 01:55:28;;;;;;;6.78;5.90;;;;;;;20.09;100.00;100672.09;674733;29;1281;-76
2023/06/11 01:55:51;;;;;;;7.15;6.45;;;;;;;20.12;100.00;100676.38;675569;29;1384;-76
2023/06/11 01:56:16;;;;;;;7.43;6.43;;;;;;;20.14;100.00;100683.34;673056;29;1340;-76
2023/06/11 01:56:37;;;;;;;7.90;6.45;;;;;;;20.10;100.00;100687.06;675076;29;1814;-76
2023/06/11 01:56:58;;;;;;;7.63;6.40;;;;;;;20.16;100.00;100680.63;675224;29;1250;-76
2023/06/11 01:57:18;;;;;;;7.25;6.28;;;;;;;20.19;100.00;100684.03;675718;29;1289;-76
2023/06/11 01:57:40;;;;;;;7.20;6.28;;;;;;;20.16;100.00;100670.91;677704;29;1328;-76
2023/06/11 01:58:01;;;;;;;7.22;6.20;;;;;;;20.11;100.00;100685.31;674142;29;1360;-76
2023/06/11 01:58:22;;;;;;;7.00;6.20;;;;;;;20.10;100.00;100670.31;674312;29;1328;-76